Time;durP1;ratioP1;P1;durP2;ratioP2;P2;SDS_P1;SDS_P2;PMS_P1;PMS_P2;Temp;Humidity;BMP_temperature;BMP_pressure;BME280_temperature;BME280_humidity;BME280_pressure;Samples;Min_cycle;Max_cycle;Signal;HPM_P1;HPM_P2
2023/09/28 00:03:00;;;;;;;;;10.00;10.00;;;;;;;;5054939;28;8829;-82
2023/09/28 00:05:28;;;;;;;;;12.20;10.00;;;;;;;;5057765;28;8865;-84
2023/09/28 00:07:56;;;;;;;;;13.20;10.80;;;;;;;;5058531;28;8972;-79
2023/09/28 00:10:23;;;;;;;;;8.80;8.80;;;;;;;;5054940;28;8866;-81
2023/09/28 00:12:52;;;;;;;;;9.60;9.00;;;;;;;;5053534;28;8865;-80
2023/09/28 00:15:19;;;;;;;;;8.60;8.60;;;;;;;;5060054;28;8940;-78
2023/09/28 00:17:47;;;;;;;;;12.60;12.00;;;;;;;;5065713;28;8956;-78
2023/09/28 00:20:17;;;;;;;;;10.60;10.60;;;;;;;;5059313;28;8858;-81
2023/09/28 00:22:46;;;;;;;;;9.00;6.80;;;;;;;;5056522;28;8850;-78
2023/09/28 00:25:16;;;;;;;;;10.00;10.00;;;;;;;;5064786;28;9655;-78
2023/09/28 00:27:43;;;;;;;;;12.40;11.60;;;;;;;;5055607;28;8845;-78
2023/09/28 00:30:13;;;;;;;;;11.00;10.40;;;;;;;;5061403;28;9622;-78
2023/09/28 00:32:39;;;;;;;;;11.20;10.80;;;;;;;;5058666;28;9700;-78
2023/09/28 00:35:07;;;;;;;;;11.60;11.60;;;;;;;;5052641;28;8858;-79
2023/09/28 00:37:34;;;;;;;;;11.40;10.40;;;;;;;;5060377;28;8877;-78
2023/09/28 00:40:08;;;;;;;;;10.60;10.60;;;;;;;;5051360;28;8994;-78
2023/09/28 00:42:34;;;;;;;;;9.80;9.40;;;;;;;;5062203;28;8839;-83
2023/09/28 00:45:02;;;;;;;;;12.00;10.40;;;;;;;;5060366;28;8873;-79
2023/09/28 00:47:28;;;;;;;;;12.20;9.40;;;;;;;;5055111;28;8835;-77
2023/09/28 00:49:56;;;;;;;;;9.80;9.60;;;;;;;;5057441;28;8961;-81
2023/09/28 00:52:23;;;;;;;;;11.40;11.40;;;;;;;;5053821;28;8912;-77
2023/09/28 00:54:51;;;;;;;;;12.60;12.60;;;;;;;;5065925;28;9780;-77
2023/09/28 00:57:18;;;;;;;;;11.20;11.20;;;;;;;;5049464;28;8845;-79
2023/09/28 00:59:48;;;;;;;;;9.80;9.80;;;;;;;;5053962;28;8988;-78
2023/09/28 01:02:14;;;;;;;;;11.80;10.00;;;;;;;;5055661;28;8803;-78
2023/09/28 01:04:42;;;;;;;;;14.20;12.40;;;;;;;;5051250;28;8854;-77
2023/09/28 01:07:11;;;;;;;;;12.00;12.00;;;;;;;;5055069;28;8842;-77
2023/09/28 01:09:38;;;;;;;;;10.20;10.20;;;;;;;;5052660;28;8854;-77
2023/09/28 01:12:08;;;;;;;;;15.60;11.80;;;;;;;;5058839;28;8872;-79
2023/09/28 01:14:37;;;;;;;;;12.80;12.20;;;;;;;;5058416;28;8849;-78
2023/09/28 01:17:03;;;;;;;;;11.00;11.00;;;;;;;;5061295;28;8845;-78
2023/09/28 01:19:31;;;;;;;;;9.80;9.80;;;;;;;;5048998;28;8911;-80
2023/09/28 01:21:58;;;;;;;;;10.60;10.00;;;;;;;;5052334;28;8927;-80
2023/09/28 01:24:27;;;;;;;;;13.80;12.40;;;;;;;;5054992;28;8851;-81
2023/09/28 01:26:53;;;;;;;;;10.20;10.20;;;;;;;;5053933;28;8979;-80
2023/09/28 01:29:20;;;;;;;;;11.00;11.00;;;;;;;;5057579;28;8859;-77
2023/09/28 01:31:46;;;;;;;;;11.80;10.40;;;;;;;;5061900;28;8855;-80
2023/09/28 01:34:14;;;;;;;;;13.00;11.40;;;;;;;;5063617;28;8847;-85
2023/09/28 01:36:40;;;;;;;;;9.00;9.00;;;;;;;;5062480;28;8846;-84
2023/09/28 01:39:07;;;;;;;;;9.40;8.40;;;;;;;;5061428;28;8900;-78
2023/09/28 01:41:36;;;;;;;;;11.60;11.60;;;;;;;;5058362;28;8847;-86
2023/09/28 01:44:03;;;;;;;;;10.00;9.80;;;;;;;;5052047;28;8938;-82
2023/09/28 01:46:29;;;;;;;;;10.60;10.60;;;;;;;;5061328;28;8912;-81
2023/09/28 01:48:56;;;;;;;;;11.20;9.40;;;;;;;;5057540;28;8838;-78
2023/09/28 01:51:23;;;;;;;;;10.40;8.60;;;;;;;;5061904;28;8857;-77
2023/09/28 01:53:50;;;;;;;;;9.80;9.80;;;;;;;;5055021;28;8871;-81
2023/09/28 01:56:18;;;;;;;;;9.60;9.20;;;;;;;;5064138;28;8865;-79
2023/09/28 01:58:47;;;;;;;;;13.60;10.80;;;;;;;;5053350;28;8873;-80
2023/09/28 02:01:22;;;;;;;;;9.40;9.40;;;;;;;;5057653;28;8932;-83
2023/09/28 02:03:50;;;;;;;;;9.60;9.60;;;;;;;;5051939;28;8850;-81
2023/09/28 02:06:19;;;;;;;;;9.20;8.60;;;;;;;;5064788;28;8976;-82
2023/09/28 02:08:46;;;;;;;;;9.80;9.20;;;;;;;;5054173;28;8938;-85
2023/09/28 02:11:13;;;;;;;;;10.40;9.80;;;;;;;;5055281;28;8858;-82
2023/09/28 02:13:41;;;;;;;;;9.20;9.20;;;;;;;;5055412;28;8905;-83
2023/09/28 02:16:12;;;;;;;;;8.00;7.60;;;;;;;;5051373;28;8845;-82
2023/09/28 02:18:42;;;;;;;;;10.80;10.00;;;;;;;;5063256;28;8847;-79
2023/09/28 02:21:14;;;;;;;;;10.00;8.80;;;;;;;;5067698;28;8842;-79
2023/09/28 02:23:40;;;;;;;;;9.20;7.60;;;;;;;;5066061;28;8875;-78
2023/09/28 02:26:07;;;;;;;;;11.60;9.80;;;;;;;;5054992;28;8864;-78
2023/09/28 02:28:34;;;;;;;;;8.00;8.00;;;;;;;;5057009;28;8863;-80
2023/09/28 02:31:06;;;;;;;;;9.80;9.80;;;;;;;;5059036;28;8831;-80
2023/09/28 02:33:34;;;;;;;;;9.80;9.00;;;;;;;;5053218;28;8846;-78
2023/09/28 02:36:01;;;;;;;;;9.80;9.80;;;;;;;;5053783;28;8893;-79
2023/09/28 02:38:29;;;;;;;;;9.00;9.00;;;;;;;;5062573;28;8846;-81
2023/09/28 02:40:56;;;;;;;;;7.60;7.60;;;;;;;;5060755;28;8857;-78
2023/09/28 02:43:22;;;;;;;;;9.80;9.80;;;;;;;;5061724;28;8863;-80
2023/09/28 02:45:49;;;;;;;;;12.20;10.40;;;;;;;;5058481;28;8850;-78
2023/09/28 02:48:16;;;;;;;;;12.80;12.40;;;;;;;;5058278;28;8942;-77
2023/09/28 02:50:45;;;;;;;;;11.20;11.20;;;;;;;;5064504;28;8835;-79
2023/09/28 02:53:11;;;;;;;;;12.60;11.80;;;;;;;;5054445;28;8865;-79
2023/09/28 02:55:38;;;;;;;;;10.40;10.40;;;;;;;;5055743;28;8866;-77
2023/09/28 02:58:04;;;;;;;;;11.00;11.00;;;;;;;;5062741;28;8918;-79
2023/09/28 03:00:33;;;;;;;;;9.60;9.60;;;;;;;;5066431;28;8798;-79
2023/09/28 03:03:06;;;;;;;;;7.60;7.60;;;;;;;;5062227;28;8842;-78
2023/09/28 03:05:33;;;;;;;;;10.00;7.60;;;;;;;;5068206;28;8849;-78
2023/09/28 03:08:01;;;;;;;;;8.20;8.20;;;;;;;;5067209;28;8960;-82
2023/09/28 03:10:28;;;;;;;;;7.80;6.00;;;;;;;;5055327;28;8863;-82
2023/09/28 03:12:55;;;;;;;;;6.60;5.60;;;;;;;;5067744;28;8973;-77
2023/09/28 03:15:22;;;;;;;;;6.20;5.20;;;;;;;;5066945;28;9657;-79
2023/09/28 03:17:49;;;;;;;;;5.20;3.40;;;;;;;;5056935;28;8839;-78
2023/09/28 03:20:17;;;;;;;;;7.80;5.80;;;;;;;;5057520;28;8886;-78
2023/09/28 03:22:45;;;;;;;;;4.20;4.00;;;;;;;;5064129;28;8840;-77
2023/09/28 03:25:16;;;;;;;;;2.80;2.80;;;;;;;;5065190;28;9683;-78
2023/09/28 03:27:43;;;;;;;;;3.60;3.60;;;;;;;;5056330;28;9012;-79
2023/09/28 03:30:11;;;;;;;;;6.00;4.40;;;;;;;;5053733;28;8843;-81
2023/09/28 03:32:38;;;;;;;;;4.00;4.00;;;;;;;;5059814;28;8853;-78
2023/09/28 03:35:06;;;;;;;;;2.20;2.20;;;;;;;;5064218;28;8850;-79
2023/09/28 03:37:34;;;;;;;;;6.40;4.00;;;;;;;;5057761;28;8855;-78
2023/09/28 03:40:09;;;;;;;;;4.00;4.00;;;;;;;;5056865;28;9840;-78
2023/09/28 03:42:38;;;;;;;;;4.40;4.40;;;;;;;;5063708;28;8842;-83
2023/09/28 03:45:08;;;;;;;;;4.20;2.80;;;;;;;;5053578;28;8858;-84
2023/09/28 03:47:36;;;;;;;;;3.00;3.00;;;;;;;;5063843;28;8977;-82
2023/09/28 03:50:04;;;;;;;;;6.00;5.00;;;;;;;;5073817;28;8887;-79
2023/09/28 03:52:35;;;;;;;;;5.60;2.40;;;;;;;;5060033;28;8866;-87
2023/09/28 03:55:03;;;;;;;;;3.20;3.20;;;;;;;;5063472;28;8925;-82
2023/09/28 03:57:30;;;;;;;;;4.00;3.50;;;;;;;;5054337;28;9609;-84
2023/09/28 03:59:59;;;;;;;;;5.00;5.00;;;;;;;;5067690;28;8839;-82
2023/09/28 04:02:28;;;;;;;;;4.20;1.80;;;;;;;;5060757;28;8809;-85
2023/09/28 04:04:55;;;;;;;;;2.20;2.20;;;;;;;;5060716;28;8846;-82
2023/09/28 04:07:23;;;;;;;;;3.80;3.80;;;;;;;;5062998;28;8940;-79
2023/09/28 04:09:50;;;;;;;;;2.60;2.40;;;;;;;;5047240;28;8851;-77
2023/09/28 04:12:17;;;;;;;;;5.00;4.50;;;;;;;;5052732;28;8879;-79
2023/09/28 04:14:44;;;;;;;;;3.60;2.00;;;;;;;;5064714;28;8847;-77
2023/09/28 04:17:13;;;;;;;;;4.75;2.75;;;;;;;;5067564;28;8997;-77
2023/09/28 04:19:40;;;;;;;;;1.50;1.50;;;;;;;;5047136;28;8940;-77
2023/09/28 04:22:07;;;;;;;;;3.25;2.75;;;;;;;;5059785;28;8847;-78
2023/09/28 04:24:35;;;;;;;;;3.75;2.50;;;;;;;;5067558;28;8842;-78
2023/09/28 04:27:04;;;;;;;;;3.25;2.25;;;;;;;;5067185;28;8874;-78
2023/09/28 04:29:32;;;;;;;;;3.00;3.00;;;;;;;;5054574;28;8881;-80
2023/09/28 04:31:59;;;;;;;;;3.25;3.25;;;;;;;;5052218;28;8798;-78
2023/09/28 04:34:30;;;;;;;;;2.75;2.00;;;;;;;;5057951;28;8832;-79
2023/09/28 04:36:57;;;;;;;;;1.25;1.25;;;;;;;;5058690;28;8845;-79
2023/09/28 04:39:26;;;;;;;;;2.25;2.00;;;;;;;;5060069;28;8883;-77
2023/09/28 04:41:54;;;;;;;;;2.25;2.00;;;;;;;;5051621;28;8962;-77
2023/09/28 04:44:21;;;;;;;;;5.00;2.25;;;;;;;;5066823;28;8886;-77
2023/09/28 04:46:50;;;;;;;;;3.00;3.00;;;;;;;;5063217;28;8847;-77
2023/09/28 04:49:17;;;;;;;;;4.50;3.00;;;;;;;;5064302;28;8935;-79
2023/09/28 04:51:47;;;;;;;;;2.50;2.00;;;;;;;;5054808;28;8877;-86
2023/09/28 04:54:15;;;;;;;;;4.25;3.25;;;;;;;;5065917;28;8901;-81
2023/09/28 04:56:43;;;;;;;;;2.75;2.75;;;;;;;;5059898;28;8834;-81
2023/09/28 04:59:10;;;;;;;;;0.50;0.50;;;;;;;;5067062;28;8854;-78
2023/09/28 05:01:37;;;;;;;;;1.75;1.75;;;;;;;;5058373;28;8933;-81
2023/09/28 05:04:04;;;;;;;;;3.00;3.00;;;;;;;;5055609;28;8842;-73
2023/09/28 05:06:32;;;;;;;;;6.25;3.75;;;;;;;;5067457;28;9017;-76
2023/09/28 05:09:00;;;;;;;;;2.00;2.00;;;;;;;;5057957;28;8841;-77
2023/09/28 05:11:28;;;;;;;;;2.00;1.50;;;;;;;;5066336;28;8846;-86
2023/09/28 05:13:56;;;;;;;;;2.00;2.00;;;;;;;;5054534;28;8854;-72
2023/09/28 05:16:23;;;;;;;;;2.25;2.25;;;;;;;;5066071;28;8910;-82
2023/09/28 05:18:50;;;;;;;;;2.75;2.75;;;;;;;;5059812;28;9647;-85
2023/09/28 05:21:18;;;;;;;;;6.00;1.25;;;;;;;;5050748;28;8873;-72
2023/09/28 05:23:45;;;;;;;;;2.00;2.00;;;;;;;;5061114;28;8863;-72
2023/09/28 05:26:16;;;;;;;;;2.50;1.50;;;;;;;;5071321;28;9650;-71
2023/09/28 05:28:44;;;;;;;;;3.00;2.00;;;;;;;;5068704;28;8886;-76
2023/09/28 05:31:12;;;;;;;;;1.75;1.75;;;;;;;;5051045;28;8821;-84
2023/09/28 05:33:39;;;;;;;;;1.75;0.25;;;;;;;;5058627;28;8839;-72
2023/09/28 05:36:07;;;;;;;;;1.50;1.00;;;;;;;;5057045;28;8853;-71
2023/09/28 05:38:34;;;;;;;;;4.00;2.50;;;;;;;;5066424;28;8846;-71
2023/09/28 05:41:01;;;;;;;;;4.50;3.00;;;;;;;;5069530;28;9001;-70
2023/09/28 05:43:30;;;;;;;;;2.25;1.25;;;;;;;;5060818;28;8826;-75
2023/09/28 05:45:58;;;;;;;;;1.50;1.50;;;;;;;;5049820;28;8858;-71
2023/09/28 05:48:26;;;;;;;;;2.00;1.25;;;;;;;;5058976;28;8835;-71
2023/09/28 05:50:55;;;;;;;;;3.25;3.25;;;;;;;;5053245;28;9028;-71
2023/09/28 05:53:22;;;;;;;;;2.75;1.75;;;;;;;;5052404;28;9036;-71
2023/09/28 05:55:51;;;;;;;;;3.75;1.00;;;;;;;;5058306;28;8976;-77
2023/09/28 05:58:19;;;;;;;;;3.25;1.25;;;;;;;;5048573;28;8857;-73
2023/09/28 06:00:48;;;;;;;;;0.75;0.75;;;;;;;;5062369;28;8795;-70
2023/09/28 06:03:16;;;;;;;;;3.50;2.00;;;;;;;;5057382;28;8854;-89
2023/09/28 06:05:43;;;;;;;;;1.75;1.75;;;;;;;;5051168;28;8877;-72
2023/09/28 06:08:10;;;;;;;;;3.00;1.25;;;;;;;;5069781;28;8857;-83
2023/09/28 06:10:39;;;;;;;;;2.75;1.75;;;;;;;;5054898;28;8880;-89
2023/09/28 06:13:07;;;;;;;;;3.00;2.25;;;;;;;;5050628;28;8849;-72
2023/09/28 06:15:34;;;;;;;;;1.25;1.25;;;;;;;;5060926;28;8867;-73
2023/09/28 06:18:08;;;;;;;;;2.50;2.50;;;;;;;;5059699;28;8831;-75
2023/09/28 06:20:36;;;;;;;;;2.25;1.50;;;;;;;;5054603;28;8847;-73
2023/09/28 06:23:03;;;;;;;;;6.50;2.75;;;;;;;;5061035;28;8908;-72
2023/09/28 06:25:31;;;;;;;;;3.00;3.00;;;;;;;;5055309;28;8924;-75
2023/09/28 06:27:58;;;;;;;;;2.50;2.00;;;;;;;;5053632;28;8842;-76
2023/09/28 06:30:25;;;;;;;;;3.00;3.00;;;;;;;;5056318;28;8761;-75
2023/09/28 06:32:52;;;;;;;;;2.00;2.00;;;;;;;;5055782;28;8901;-71
2023/09/28 06:35:21;;;;;;;;;6.25;2.00;;;;;;;;5061891;28;8862;-76
2023/09/28 06:37:49;;;;;;;;;4.25;1.75;;;;;;;;5059596;28;9308;-77
2023/09/28 06:40:17;;;;;;;;;5.25;3.25;;;;;;;;5052919;28;8863;-74
2023/09/28 06:42:47;;;;;;;;;5.50;2.00;;;;;;;;5061438;28;8968;-72
2023/09/28 06:45:15;;;;;;;;;6.25;2.25;;;;;;;;5058349;28;8857;-75
2023/09/28 06:47:42;;;;;;;;;2.00;2.00;;;;;;;;5058953;28;8847;-73
2023/09/28 06:50:10;;;;;;;;;3.00;2.00;;;;;;;;5059603;28;8858;-78
2023/09/28 06:52:39;;;;;;;;;4.25;1.25;;;;;;;;5051240;28;8853;-78
2023/09/28 06:55:07;;;;;;;;;3.75;1.75;;;;;;;;5053781;28;8854;-81
2023/09/28 06:57:34;;;;;;;;;6.00;4.00;;;;;;;;5058311;28;8904;-77
2023/09/28 07:00:08;;;;;;;;;4.25;3.50;;;;;;;;5067934;28;8850;-75
2023/09/28 07:02:36;;;;;;;;;2.50;2.50;;;;;;;;5050339;28;8805;-74
2023/09/28 07:05:03;;;;;;;;;4.75;4.00;;;;;;;;5056875;28;8843;-72
2023/09/28 07:07:31;;;;;;;;;2.75;2.00;;;;;;;;5066752;28;8872;-81
2023/09/28 07:10:00;;;;;;;;;5.00;2.25;;;;;;;;5064217;28;8968;-72
2023/09/28 07:12:28;;;;;;;;;5.50;4.00;;;;;;;;5057795;28;8846;-89
2023/09/28 07:14:55;;;;;;;;;2.25;2.25;;;;;;;;5056381;28;8932;-80
2023/09/28 07:17:25;;;;;;;;;3.00;3.00;;;;;;;;5052515;28;9676;-89
2023/09/28 07:19:52;;;;;;;;;5.50;3.00;;;;;;;;5065748;28;8851;-81
2023/09/28 07:22:21;;;;;;;;;4.50;3.25;;;;;;;;5067259;28;8851;-81
2023/09/28 07:24:48;;;;;;;;;3.00;3.00;;;;;;;;5065797;28;8859;-84
2023/09/28 07:27:17;;;;;;;;;2.75;2.75;;;;;;;;5049938;28;8842;-78
2023/09/28 07:29:44;;;;;;;;;4.25;3.50;;;;;;;;5061398;28;8896;-78
2023/09/28 07:32:11;;;;;;;;;4.50;3.25;;;;;;;;5049843;28;8815;-83
2023/09/28 07:34:38;;;;;;;;;1.00;1.00;;;;;;;;5053406;28;8851;-78
2023/09/28 07:37:07;;;;;;;;;6.25;2.00;;;;;;;;5059411;28;8862;-77
2023/09/28 07:39:34;;;;;;;;;4.25;4.25;;;;;;;;5064229;28;8855;-74
2023/09/28 07:42:06;;;;;;;;;6.50;3.25;;;;;;;;5065078;28;8851;-72
2023/09/28 07:44:34;;;;;;;;;3.00;3.00;;;;;;;;5064270;28;9688;-73
2023/09/28 07:47:01;;;;;;;;;6.25;3.00;;;;;;;;5051598;28;8862;-76
2023/09/28 07:49:31;;;;;;;;;8.00;4.25;;;;;;;;5060814;28;8880;-72
2023/09/28 07:51:59;;;;;;;;;4.50;4.50;;;;;;;;5054161;28;8871;-72
2023/09/28 07:54:28;;;;;;;;;5.25;4.50;;;;;;;;5059744;28;8926;-75
2023/09/28 07:56:56;;;;;;;;;6.00;3.00;;;;;;;;5057642;28;8850;-73
2023/09/28 07:59:24;;;;;;;;;4.75;4.75;;;;;;;;5060132;28;8861;-73
2023/09/28 08:01:54;;;;;;;;;3.60;2.40;;;;;;;;5064938;28;8811;-75
2023/09/28 08:04:22;;;;;;;;;7.60;3.40;;;;;;;;5051416;28;8866;-71
2023/09/28 08:06:49;;;;;;;;;7.40;4.20;;;;;;;;5058589;28;8859;-84
2023/09/28 08:09:16;;;;;;;;;6.80;4.20;;;;;;;;5054698;28;8940;-94
2023/09/28 08:11:44;;;;;;;;;8.00;5.00;;;;;;;;5058638;28;8877;-87
2023/09/28 08:14:12;;;;;;;;;2.20;2.20;;;;;;;;5063659;28;8865;-81
2023/09/28 08:16:39;;;;;;;;;5.20;2.40;;;;;;;;5069600;28;8924;-81
2023/09/28 08:19:08;;;;;;;;;3.80;3.80;;;;;;;;5061418;28;8839;-83
2023/09/28 08:21:37;;;;;;;;;5.40;3.80;;;;;;;;5049535;28;8889;-72
2023/09/28 08:24:04;;;;;;;;;3.00;3.00;;;;;;;;5065682;28;9579;-79
2023/09/28 08:26:31;;;;;;;;;2.80;1.80;;;;;;;;5066898;28;8869;-89
2023/09/28 08:28:59;;;;;;;;;4.00;4.00;;;;;;;;5067044;28;8892;-79
2023/09/28 08:31:27;;;;;;;;;4.00;2.20;;;;;;;;5066834;28;8835;-84
2023/09/28 08:33:54;;;;;;;;;3.60;3.60;;;;;;;;5066330;28;8859;-73
2023/09/28 08:36:23;;;;;;;;;3.00;2.00;;;;;;;;5056952;28;8866;-75
2023/09/28 08:38:50;;;;;;;;;8.80;4.20;;;;;;;;5049014;28;10104;-70
2023/09/28 08:41:24;;;;;;;;;1.20;1.20;;;;;;;;5061083;28;8866;-88
2023/09/28 08:43:55;;;;;;;;;2.80;1.80;;;;;;;;5057081;28;8855;-92
2023/09/28 08:46:23;;;;;;;;;2.00;2.00;;;;;;;;5062642;28;8877;-83
2023/09/28 08:48:52;;;;;;;;;1.80;0.80;;;;;;;;5065671;28;8865;-89
2023/09/28 08:51:21;;;;;;;;;2.60;2.40;;;;;;;;5058619;28;8870;-81
2023/09/28 08:53:50;;;;;;;;;2.00;1.80;;;;;;;;5062683;28;8876;-81
2023/09/28 08:56:18;;;;;;;;;1.60;1.60;;;;;;;;5066894;28;8950;-77
2023/09/28 08:58:47;;;;;;;;;4.60;2.80;;;;;;;;5071631;28;8863;-74
2023/09/28 09:01:14;;;;;;;;;3.20;1.80;;;;;;;;5064664;28;8890;-77
2023/09/28 09:03:41;;;;;;;;;2.80;1.20;;;;;;;;5074316;28;8953;-80
2023/09/28 09:06:10;;;;;;;;;1.00;0.60;;;;;;;;5069066;28;8845;-79
2023/09/28 09:08:40;;;;;;;;;0.80;0.80;;;;;;;;5063006;28;8853;-72
2023/09/28 09:11:08;;;;;;;;;2.00;2.00;;;;;;;;5072305;28;8871;-73
2023/09/28 09:13:38;;;;;;;;;2.40;1.80;;;;;;;;5061471;28;8971;-74
2023/09/28 09:16:06;;;;;;;;;3.00;2.20;;;;;;;;5072842;28;8884;-72
2023/09/28 09:18:33;;;;;;;;;3.20;1.20;;;;;;;;5069236;28;8867;-75
2023/09/28 09:21:03;;;;;;;;;2.00;2.00;;;;;;;;5068737;28;9029;-72
2023/09/28 09:23:31;;;;;;;;;2.60;2.60;;;;;;;;5062925;28;8868;-84
2023/09/28 09:26:00;;;;;;;;;3.80;1.80;;;;;;;;5057326;28;8868;-72
2023/09/28 09:28:29;;;;;;;;;3.80;0.80;;;;;;;;5067836;28;8885;-76
2023/09/28 09:30:56;;;;;;;;;6.00;1.80;;;;;;;;5057222;28;8837;-73
2023/09/28 09:33:24;;;;;;;;;3.20;1.40;;;;;;;;5058353;28;8846;-75
2023/09/28 09:35:51;;;;;;;;;6.00;2.40;;;;;;;;5065535;28;8835;-76
2023/09/28 09:38:23;;;;;;;;;0.60;0.60;;;;;;;;5061325;28;8871;-75
2023/09/28 09:41:04;;;;;;;;;3.00;3.00;;;;;;;;5060923;28;8864;-71
2023/09/28 09:43:32;;;;;;;;;0.80;0.80;;;;;;;;5062637;28;8901;-71
2023/09/28 09:45:59;;;;;;;;;2.00;1.00;;;;;;;;5066319;28;8850;-75
2023/09/28 09:48:26;;;;;;;;;6.20;0.80;;;;;;;;5067020;28;8969;-71
2023/09/28 09:50:55;;;;;;;;;0.40;0.40;;;;;;;;5073808;28;8847;-76
2023/09/28 09:53:22;;;;;;;;;2.00;0.80;;;;;;;;5079319;28;8854;-76
2023/09/28 09:55:51;;;;;;;;;1.40;1.40;;;;;;;;5066262;28;8875;-87
2023/09/28 09:58:22;;;;;;;;;2.40;0.80;;;;;;;;5064490;28;9411;-75
2023/09/28 10:00:50;;;;;;;;;0.80;0.80;;;;;;;;5060783;28;8807;-89
2023/09/28 10:03:19;;;;;;;;;4.60;2.00;;;;;;;;5052941;28;8869;-82
2023/09/28 10:05:46;;;;;;;;;3.20;2.00;;;;;;;;5063150;28;8854;-92
2023/09/28 10:08:14;;;;;;;;;2.00;1.00;;;;;;;;5051798;28;8863;-82
2023/09/28 10:10:41;;;;;;;;;2.80;2.80;;;;;;;;5053304;28;8842;-90
2023/09/28 10:13:08;;;;;;;;;1.80;0.20;;;;;;;;5058201;28;8870;-78
2023/09/28 10:15:37;;;;;;;;;0.00;0.00;;;;;;;;5055170;28;8875;-79
2023/09/28 10:18:05;;;;;;;;;0.80;0.80;;;;;;;;5070421;28;8926;-78
2023/09/28 10:20:33;;;;;;;;;2.60;1.00;;;;;;;;5061675;28;8862;-80
2023/09/28 10:23:12;;;;;;;;;3.00;1.00;;;;;;;;5064530;28;9799;-88
2023/09/28 10:25:54;;;;;;;;;3.00;0.00;;;;;;;;5068410;28;8853;-80
2023/09/28 10:28:21;;;;;;;;;3.00;0.60;;;;;;;;5058845;28;8853;-85
2023/09/28 10:31:10;;;;;;;;;4.60;0.00;;;;;;;;5057692;28;8850;-75
2023/09/28 10:34:00;;;;;;;;;2.60;0.00;;;;;;;;5055541;28;8958;-77
2023/09/28 10:36:31;;;;;;;;;1.00;1.00;;;;;;;;5060413;28;8921;-80
2023/09/28 10:39:13;;;;;;;;;1.00;1.00;;;;;;;;5051537;28;8911;-72
2023/09/28 10:41:44;;;;;;;;;2.00;2.00;;;;;;;;5052517;28;8884;-70
2023/09/28 10:44:19;;;;;;;;;1.00;1.00;;;;;;;;5059587;28;8858;-76
2023/09/28 10:46:49;;;;;;;;;1.40;0.60;;;;;;;;5057918;28;8831;-80
2023/09/28 10:49:22;;;;;;;;;0.80;0.80;;;;;;;;5058403;28;8851;-81
2023/09/28 10:51:51;;;;;;;;;2.40;1.20;;;;;;;;5063602;28;8875;-71
2023/09/28 10:54:18;;;;;;;;;3.20;1.80;;;;;;;;5049942;28;8885;-72
2023/09/28 10:56:49;;;;;;;;;1.00;1.00;;;;;;;;5055081;28;8869;-72
2023/09/28 10:59:18;;;;;;;;;1.00;1.00;;;;;;;;5052649;28;8872;-71
2023/09/28 11:01:47;;;;;;;;;2.80;0.00;;;;;;;;5061957;28;8814;-72
2023/09/28 11:04:15;;;;;;;;;1.20;1.20;;;;;;;;5052029;28;8905;-75
2023/09/28 11:06:43;;;;;;;;;0.40;0.40;;;;;;;;5051750;28;9698;-74
2023/09/28 11:09:12;;;;;;;;;0.80;0.00;;;;;;;;5049542;28;8868;-73
2023/09/28 11:11:39;;;;;;;;;4.20;2.00;;;;;;;;5067336;28;8839;-75
2023/09/28 11:14:06;;;;;;;;;3.80;1.80;;;;;;;;5066786;28;8859;-72
2023/09/28 11:16:34;;;;;;;;;0.60;0.60;;;;;;;;5053865;28;9980;-72
2023/09/28 11:19:05;;;;;;;;;1.20;1.20;;;;;;;;5070037;28;8842;-72
2023/09/28 11:21:33;;;;;;;;;1.20;1.20;;;;;;;;5058833;28;8891;-72
2023/09/28 11:24:03;;;;;;;;;2.00;1.00;;;;;;;;5065956;28;8896;-75
2023/09/28 11:26:31;;;;;;;;;3.80;1.20;;;;;;;;5067535;28;8850;-72
2023/09/28 11:28:58;;;;;;;;;1.20;1.20;;;;;;;;5057231;28;8858;-73
2023/09/28 11:31:27;;;;;;;;;2.00;2.00;;;;;;;;5067147;28;8783;-86
2023/09/28 11:33:58;;;;;;;;;1.80;1.80;;;;;;;;5060202;28;8838;-88
2023/09/28 11:36:28;;;;;;;;;2.20;2.20;;;;;;;;5067477;28;8889;-83
2023/09/28 11:38:59;;;;;;;;;3.00;1.00;;;;;;;;5068661;28;8855;-84
2023/09/28 11:41:26;;;;;;;;;1.40;1.40;;;;;;;;5062539;28;8862;-89
2023/09/28 11:43:56;;;;;;;;;2.00;0.60;;;;;;;;5068227;28;8839;-89
2023/09/28 11:46:25;;;;;;;;;3.00;0.20;;;;;;;;5068678;28;9657;-77
2023/09/28 11:49:04;;;;;;;;;2.00;0.60;;;;;;;;5061283;28;8845;-81
2023/09/28 11:51:34;;;;;;;;;1.00;0.80;;;;;;;;5058999;28;8861;-82
2023/09/28 11:54:01;;;;;;;;;5.00;4.80;;;;;;;;5053074;28;8906;-85
2023/09/28 11:56:29;;;;;;;;;2.40;2.40;;;;;;;;5069300;28;8843;-73
2023/09/28 11:58:57;;;;;;;;;1.20;1.20;;;;;;;;5073641;28;8980;-86
2023/09/28 12:01:25;;;;;;;;;3.00;2.00;;;;;;;;5052285;28;8819;-76
2023/09/28 12:03:52;;;;;;;;;3.20;2.00;;;;;;;;5052928;28;8865;-88
2023/09/28 12:06:19;;;;;;;;;0.40;0.40;;;;;;;;5056688;28;8904;-84
2023/09/28 12:08:48;;;;;;;;;3.00;1.00;;;;;;;;5053350;28;8857;-77
2023/09/28 12:11:15;;;;;;;;;3.20;2.20;;;;;;;;5062003;28;8850;-78
2023/09/28 12:13:42;;;;;;;;;2.60;2.60;;;;;;;;5065727;28;8853;-85
2023/09/28 12:16:10;;;;;;;;;2.00;1.80;;;;;;;;5066235;28;8870;-84
2023/09/28 12:18:38;;;;;;;;;1.80;1.80;;;;;;;;5060259;28;9646;-78
2023/09/28 12:21:05;;;;;;;;;2.20;1.80;;;;;;;;5053001;28;8859;-72
2023/09/28 12:23:33;;;;;;;;;1.40;1.40;;;;;;;;5048065;28;8857;-72
2023/09/28 12:26:02;;;;;;;;;1.00;1.00;;;;;;;;5061963;28;8855;-86
2023/09/28 12:28:29;;;;;;;;;1.60;1.00;;;;;;;;5063932;28;8834;-73
2023/09/28 12:30:58;;;;;;;;;2.20;1.00;;;;;;;;5063901;28;8805;-73
2023/09/28 12:33:25;;;;;;;;;2.80;2.00;;;;;;;;5066887;28;8870;-75
2023/09/28 12:35:53;;;;;;;;;2.60;0.00;;;;;;;;5047960;28;8867;-76
2023/09/28 12:38:20;;;;;;;;;1.60;0.00;;;;;;;;5049389;28;8842;-80
2023/09/28 12:40:48;;;;;;;;;3.60;2.60;;;;;;;;5052518;28;8881;-72
2023/09/28 12:43:16;;;;;;;;;2.60;1.20;;;;;;;;5058536;28;8911;-79
2023/09/28 12:45:44;;;;;;;;;1.00;1.00;;;;;;;;5051564;28;8846;-76
2023/09/28 12:48:17;;;;;;;;;4.20;1.80;;;;;;;;5051767;28;8908;-73
2023/09/28 12:50:45;;;;;;;;;1.00;1.00;;;;;;;;5052428;28;8858;-77
2023/09/28 12:53:12;;;;;;;;;1.60;1.20;;;;;;;;5063371;28;8859;-73
2023/09/28 12:55:39;;;;;;;;;1.20;1.20;;;;;;;;5060349;28;8854;-72
2023/09/28 12:58:06;;;;;;;;;4.00;2.40;;;;;;;;5057599;28;8901;-72
2023/09/28 13:00:36;;;;;;;;;1.00;1.00;;;;;;;;5061217;28;8803;-72
2023/09/28 13:03:07;;;;;;;;;1.40;1.40;;;;;;;;5059711;28;8851;-76
2023/09/28 13:05:37;;;;;;;;;4.40;2.00;;;;;;;;5055199;28;8858;-72
2023/09/28 13:08:07;;;;;;;;;3.20;3.20;;;;;;;;5066211;28;8831;-73
2023/09/28 13:10:34;;;;;;;;;6.00;1.00;;;;;;;;5056452;28;9640;-78
2023/09/28 13:13:06;;;;;;;;;1.20;1.00;;;;;;;;5056514;28;8850;-72
2023/09/28 13:15:35;;;;;;;;;1.40;1.40;;;;;;;;5048289;28;8968;-72
2023/09/28 13:18:11;;;;;;;;;1.40;1.40;;;;;;;;5052209;28;8843;-83
2023/09/28 13:20:39;;;;;;;;;2.20;0.20;;;;;;;;5060299;28;8928;-77
2023/09/28 13:23:09;;;;;;;;;3.20;3.00;;;;;;;;5055051;28;8876;-83
2023/09/28 13:25:38;;;;;;;;;2.20;1.40;;;;;;;;5050696;28;8855;-84
2023/09/28 13:28:08;;;;;;;;;0.40;0.40;;;;;;;;5048783;28;8937;-71
2023/09/28 13:30:38;;;;;;;;;2.20;2.20;;;;;;;;5063829;28;9542;-82
2023/09/28 13:33:06;;;;;;;;;1.00;1.00;;;;;;;;5062725;28;9675;-82
2023/09/28 13:35:33;;;;;;;;;2.20;2.20;;;;;;;;5073591;28;8995;-76
2023/09/28 13:38:01;;;;;;;;;3.00;1.20;;;;;;;;5068112;28;8870;-76
2023/09/28 13:40:33;;;;;;;;;2.00;2.00;;;;;;;;5069085;28;8866;-72
2023/09/28 13:43:01;;;;;;;;;2.80;2.00;;;;;;;;5067947;28;8867;-82
2023/09/28 13:45:28;;;;;;;;;1.20;1.20;;;;;;;;5053480;28;8866;-73
2023/09/28 13:47:58;;;;;;;;;3.00;3.00;;;;;;;;5053274;28;8924;-76
2023/09/28 13:50:28;;;;;;;;;4.60;3.20;;;;;;;;5060862;28;9039;-77
2023/09/28 13:52:55;;;;;;;;;0.00;0.00;;;;;;;;5054928;28;8846;-73
2023/09/28 13:55:23;;;;;;;;;2.80;2.40;;;;;;;;5063598;28;8839;-72
2023/09/28 13:57:50;;;;;;;;;1.20;1.20;;;;;;;;5057365;28;8865;-81
2023/09/28 14:00:28;;;;;;;;;2.00;2.00;;;;;;;;5061508;28;9004;-73
2023/09/28 14:02:56;;;;;;;;;3.60;1.80;;;;;;;;5049480;28;8976;-81
2023/09/28 14:05:24;;;;;;;;;1.60;1.60;;;;;;;;5050647;28;8980;-75
2023/09/28 14:07:51;;;;;;;;;3.00;1.60;;;;;;;;5061572;28;8885;-82
2023/09/28 14:10:19;;;;;;;;;4.00;2.60;;;;;;;;5068279;28;8858;-82
2023/09/28 14:12:48;;;;;;;;;4.00;2.20;;;;;;;;5062557;28;9640;-84
2023/09/28 14:15:16;;;;;;;;;0.60;0.60;;;;;;;;5063819;28;9639;-75
2023/09/28 14:17:44;;;;;;;;;3.00;2.00;;;;;;;;5062092;28;8842;-83
2023/09/28 14:20:15;;;;;;;;;2.20;2.20;;;;;;;;5058192;28;9621;-75
2023/09/28 14:22:46;;;;;;;;;0.40;0.40;;;;;;;;5054972;28;9648;-76
2023/09/28 14:25:13;;;;;;;;;1.20;1.20;;;;;;;;5065146;28;8885;-73
2023/09/28 14:27:41;;;;;;;;;2.00;1.60;;;;;;;;5057511;28;8967;-75
2023/09/28 14:30:09;;;;;;;;;2.00;2.00;;;;;;;;5055900;28;8850;-73
2023/09/28 14:32:37;;;;;;;;;1.60;1.60;;;;;;;;5055450;28;8880;-74
2023/09/28 14:35:05;;;;;;;;;1.80;1.80;;;;;;;;5056096;28;8855;-72
2023/09/28 14:37:34;;;;;;;;;1.60;1.60;;;;;;;;5051444;28;8905;-73
2023/09/28 14:40:01;;;;;;;;;2.00;1.40;;;;;;;;5050454;28;8858;-72
2023/09/28 14:42:28;;;;;;;;;1.80;1.80;;;;;;;;5057627;28;8981;-71
2023/09/28 14:44:56;;;;;;;;;3.60;2.00;;;;;;;;5058285;28;8877;-73
2023/09/28 14:47:23;;;;;;;;;3.40;2.60;;;;;;;;5058760;28;9621;-76
2023/09/28 14:49:50;;;;;;;;;1.60;1.00;;;;;;;;5050959;28;8875;-78
2023/09/28 14:52:17;;;;;;;;;0.00;0.00;;;;;;;;5067771;28;8959;-72
2023/09/28 14:54:46;;;;;;;;;3.40;2.40;;;;;;;;5057289;28;9636;-76
2023/09/28 14:57:13;;;;;;;;;1.40;1.40;;;;;;;;5058550;28;8900;-78
2023/09/28 14:59:40;;;;;;;;;1.60;1.40;;;;;;;;5055673;28;8861;-77
2023/09/28 15:02:07;;;;;;;;;2.20;1.40;;;;;;;;5061606;28;8810;-73